Ship Status Report: callsign BATFR34

sailwx.info

Track history (hours):
 
Tides and Currents Weather Stations Pressure Air Temp Water Temp Dewpoint Dewpoint Depression Visibility Wind Speed Wind Dir Waves Ship Positions

Callsign BATFR34 (name unknown)

Last reported at 2015-Mar-01 07:00 UTC. Time now 2015-Mar-01 08:31 UTC.
Position N 47°42' W 004°42'.

Wind from 270 at 12 knots

Barometer 1012.2 mb
Water temperature 11.7 ° C

Date/timePositionNaut miles runAvg speedWind from/ knotsBaromVisibWave heightAir tempDewpointWater temp
2015-Mar-01 07:00N 47°42' W 004°42'4 4.0 270 / 121012.2 11.7
2015-Mar-01 06:00N 47°42' W 004°48'7 7.2 280 / 101011.6 11.7
2015-Mar-01 05:00N 47°36' W 004°54'8 8.1 290 / 151011.7 11.9
2015-Mar-01 04:00N 47°36' W 005°06'4 4.0 290 / 141011.0 11.9
2015-Mar-01 03:00N 47°36' W 005°12'7 7.2 280 / 161011.7 11.9
2015-Mar-01 02:00N 47°30' W 005°18'4 4.1 270 / 141011.4 11.9
2015-Mar-01 01:00N 47°30' W 005°24'8 8.1 250 / 131010.8 11.9
2015-Mar-01 00:00N 47°30' W 005°36'0 0.0 270 / 151011.1 11.9
2015-Feb-28 23:00N 47°30' W 005°36'7 7.2 1010.7 12.2
2015-Feb-28 22:00N 47°24' W 005°42'0 0.0 1010.8 12.2
2015-Feb-28 20:00N 47°24' W 005°42'0 0.0 1010.8 12.4
2015-Feb-28 19:00N 47°24' W 005°42'0 0.0 240 / 171011.4 12.9
2015-Feb-28 18:00N 47°24' W 005°42'4 4.1 240 / 121010.5 12.9
2015-Feb-28 17:00N 47°24' W 005°36'1010.1 240 / 231010.9 13.2
2015-Feb-28 16:00N 47°30' W 005°24'14 6.8 240 / 221011.5 13.0
2015-Feb-28 14:00N 47°36' W 005°06'8 8.1 230 / 181012.8 12.9
2015-Feb-28 13:00N 47°36' W 004°54'1010.1 240 / 171014.3 12.9
2015-Feb-28 12:00N 47°42' W 004°42'8 8.1 260 / 141015.4 12.7
2015-Feb-28 11:00N 47°42' W 004°30'1010.1 270 / 121014.5 11.7
2015-Feb-28 10:00N 47°48' W 004°18'   260 / 111014.7 11.2
2015-Feb-23 09:00N 47°48' W 004°18'12 6.0 290 / 191002.6 11.4
2015-Feb-23 07:00N 47°48' W 004°36'1010.0 290 / 221001.6 12.0
2015-Feb-23 06:00N 47°54' W 004°48'8 8.0 280 / 241001.5 12.5
2015-Feb-23 05:00N 47°54' W 005°00'7 7.2 280 / 241001.6 12.7
2015-Feb-23 04:00N 48°00' W 005°06'7 7.2 290 / 181000.8 12.7
2015-Feb-23 03:00N 48°06' W 005°12'8 8.0 280 / 191001.3 12.4
2015-Feb-23 02:00N 48°06' W 005°24'17 8.5 290 / 191001.5 12.7
2015-Feb-23 00:00N 48°18' W 005°42'7 7.2 310 / 231001.5 12.7
2015-Feb-22 23:00N 48°24' W 005°48'1010.0 280 / 241000.8 12.5
2015-Feb-22 22:00N 48°30' W 006°00'1010.0 270 / 231000.6 12.5
2015-Feb-22 21:00N 48°36' W 006°12'4 4.0 270 / 251000.7 12.2
2015-Feb-22 20:00N 48°36' W 006°18'0 0.0 260 / 181001.5 12.4
2015-Feb-22 19:00N 48°36' W 006°18'4 4.0 270 / 181001.4 12.4
2015-Feb-22 18:00N 48°36' W 006°24'6 6.0 270 / 221001.2 12.2
2015-Feb-22 17:00N 48°30' W 006°24'4 4.0 270 / 221001.8 12.2
2015-Feb-22 16:00N 48°30' W 006°30'6 6.0 260 / 201003.2 12.2
2015-Feb-22 15:00N 48°24' W 006°30'0 0.0 250 / 151003.5 12.4
2015-Feb-22 13:00N 48°24' W 006°30'0 0.0 270 / 171004.9 12.4
2015-Feb-22 12:00N 48°24' W 006°30'7 7.2 230 / 191005.8 12.4
2015-Feb-22 11:00N 48°30' W 006°24'0 0.0 200 / 231006.5 12.4
2015-Feb-22 10:00N 48°30' W 006°24'6 6.0 200 / 221007.2 12.4
2015-Feb-22 09:00N 48°36' W 006°24'0 0.0 180 / 211008.1 12.2
2015-Feb-22 07:00N 48°36' W 006°24'6 6.0 230 / 131010.3 12.4
2015-Feb-22 06:00N 48°30' W 006°24'4 4.0 250 / 111011.1 12.4
2015-Feb-22 05:00N 48°30' W 006°30'6 6.0 220 / 71011.5 12.4
2015-Feb-22 04:00N 48°24' W 006°30'7 7.2 260 / 71012.3 12.4
2015-Feb-22 03:00N 48°18' W 006°36'7 3.6 270 / 81013.4 12.4
2015-Feb-22 01:00N 48°24' W 006°30'0 0.0 320 / 111013.8 12.4
2015-Feb-22 00:00N 48°24' W 006°30'7 7.2 330 / 141013.8 12.4
2015-Feb-21 23:00N 48°30' W 006°24'0 0.0 330 / 161013.7 12.4
2015-Feb-21 22:00N 48°30' W 006°24'6 6.0 330 / 181013.8 12.2
2015-Feb-21 21:00N 48°36' W 006°24'0 0.0 320 / 151012.9 12.2
2015-Feb-21 20:00N 48°36' W 006°24'6 6.0 350 / 181012.4 12.2
2015-Feb-21 19:00N 48°30' W 006°24'4 4.0 350 / 171011.7 12.4
2015-Feb-21 18:00N 48°30' W 006°30'6 3.0 340 / 181011.5 12.4
2015-Feb-21 16:00N 48°24' W 006°30'0 0.0 1010.8 12.2
2015-Feb-21 15:00N 48°24' W 006°30'7 7.2 300 / 221011.0 12.4
2015-Feb-21 14:00N 48°18' W 006°36'0 0.0 300 / 211011.3 12.4
2015-Feb-21 13:00N 48°18' W 006°36'0 0.0 310 / 221011.8 12.4
2015-Feb-21 12:00N 48°18' W 006°36'0 0.0 340 / 211012.2 12.5
2015-Feb-21 11:00N 48°18' W 006°36'6 6.0 330 / 221011.5 12.4
2015-Feb-21 10:00N 48°24' W 006°36'4 4.0 320 / 211010.6 12.4
2015-Feb-21 09:00N 48°24' W 006°30'6 6.0 320 / 211010.0 12.4
2015-Feb-21 08:00N 48°30' W 006°30'4 4.0 310 / 181009.4 12.4
2015-Feb-21 07:00N 48°30' W 006°24'0 0.0 300 / 191008.6 12.4
2015-Feb-21 06:00N 48°30' W 006°24'6 6.0 320 / 181007.6 12.4
2015-Feb-21 05:00N 48°36' W 006°24'6 3.0 310 / 181007.0 12.4
2015-Feb-21 03:00N 48°30' W 006°24'4 4.0 330 / 211007.7 12.4
2015-Feb-21 02:00N 48°30' W 006°30'6 6.0 300 / 231007.9 12.4
2015-Feb-21 01:00N 48°24' W 006°30'0 0.0 300 / 211008.1 12.4
2015-Feb-21 00:00N 48°24' W 006°30'7 7.2 310 / 191008.4 12.4
2015-Feb-20 23:00N 48°18' W 006°36'7 7.2 300 / 181008.6 12.4
2015-Feb-20 22:00N 48°24' W 006°30'0 0.0 310 / 201008.8 12.4
2015-Feb-20 21:00N 48°24' W 006°30'7 7.2 270 / 141008.7 12.4
2015-Feb-20 20:00N 48°30' W 006°24'0 0.0 290 / 121008.5 12.4
2015-Feb-20 19:00N 48°30' W 006°24'0 0.0 290 / 111008.5 12.4
2015-Feb-20 17:00N 48°30' W 006°24'4 4.0 300 / 131008.3 12.4
2015-Feb-20 16:00N 48°30' W 006°30'6 6.0 300 / 131008.7 12.4
2015-Feb-20 15:00N 48°24' W 006°30'0 0.0 350 / 121009.1 12.4
2015-Feb-20 14:00N 48°24' W 006°30'7 7.2 340 / 111009.5 12.4
2015-Feb-20 13:00N 48°30' W 006°24'0 0.0 310 / 141010.0 12.2
2015-Feb-20 12:00N 48°30' W 006°24'0 0.0 350 / 141010.6 12.4
2015-Feb-20 11:00N 48°30' W 006°24'7 7.2 320 / 101010.4 12.2
2015-Feb-20 10:00N 48°36' W 006°18'0 0.0 360 / 181010.6 12.4
2015-Feb-20 09:00N 48°36' W 006°18'0 0.0 030 / 171010.1 12.4
2015-Feb-20 07:00N 48°36' W 006°18'4 4.0 020 / 181008.1 12.4
2015-Feb-20 06:00N 48°36' W 006°24'6 6.0 270 / 131006.9 12.4
2015-Feb-20 05:00N 48°30' W 006°24'7 3.6 260 / 181007.5 12.4
2015-Feb-20 03:00N 48°24' W 006°30'0 0.0 240 / 181011.1 12.4
2015-Feb-20 02:00N 48°24' W 006°30'0 0.0 220 / 171012.3 12.4
2015-Feb-20 01:00N 48°24' W 006°30'0 0.0 240 / 161013.0 12.4
2015-Feb-20 00:00N 48°24' W 006°30'0 0.0 240 / 191014.4 12.4
2015-Feb-19 23:00N 48°24' W 006°30'7 7.2 250 / 171015.8 12.4
2015-Feb-19 22:00N 48°30' W 006°24'0 0.0 250 / 161016.6 12.4
2015-Feb-19 21:00N 48°30' W 006°24'6 6.0 230 / 121017.1 12.4
2015-Feb-19 20:00N 48°36' W 006°24'7 7.2 270 / 151017.5 12.4
2015-Feb-19 19:00N 48°30' W 006°30'8 8.0 240 / 141018.2 12.4
2015-Feb-19 18:00N 48°30' W 006°42'1010.0 240 / 151018.2 12.5
2015-Feb-19 17:00N 48°24' W 006°54'7 7.2 250 / 171018.8 12.7
2015-Feb-19 16:00N 48°18' W 007°00'4 4.0 270 / 161019.4 12.9
2015-Feb-19 15:00N 48°18' W 007°06'6 6.0 260 / 161020.2 12.9
2015-Feb-19 14:00N 48°12' W 007°06'4 4.0 240 / 121021.4 13.0
2015-Feb-19 13:00N 48°12' W 007°12'6 6.0 230 / 111022.5 13.2
2015-Feb-19 12:00N 48°06' W 007°12'0 0.0 210 / 131023.5 13.2
2015-Feb-19 11:00N 48°06' W 007°12'0 0.0 230 / 181023.5 12.9
2015-Feb-19 10:00N 48°06' W 007°12'6 6.0 230 / 191024.4 13.2
2015-Feb-19 09:00N 48°12' W 007°12'4 4.0 220 / 201025.1 13.2
2015-Feb-19 08:00N 48°12' W 007°06'6 6.0 220 / 181025.2 13.0
2015-Feb-19 07:00N 48°18' W 007°06'   210 / 191025.0 13.0
Track history (hours):
 
Tides and Currents Weather Stations Pressure Air Temp Water Temp Dewpoint Dewpoint Depression Visibility Wind Speed Wind Dir Waves Ship Positions

Callsign BATFR34 (name unknown)

Last reported at 2015-Mar-01 07:00 UTC. Time now 2015-Mar-01 08:31 UTC.
Position N 47°42' W 004°42'.

Wind from 270 at 12 knots

Barometer 1012.2 mb
Water temperature 11.7 ° C

Date/timePositionNaut miles runAvg speedWind from/ knotsBaromVisibWave heightAir tempDewpointWater temp
2015-Mar-01 07:00N 47°42' W 004°42'4 4.0 270 / 121012.2 11.7
2015-Mar-01 06:00N 47°42' W 004°48'7 7.2 280 / 101011.6 11.7
2015-Mar-01 05:00N 47°36' W 004°54'8 8.1 290 / 151011.7 11.9
2015-Mar-01 04:00N 47°36' W 005°06'4 4.0 290 / 141011.0 11.9
2015-Mar-01 03:00N 47°36' W 005°12'7 7.2 280 / 161011.7 11.9
2015-Mar-01 02:00N 47°30' W 005°18'4 4.1 270 / 141011.4 11.9
2015-Mar-01 01:00N 47°30' W 005°24'8 8.1 250 / 131010.8 11.9
2015-Mar-01 00:00N 47°30' W 005°36'0 0.0 270 / 151011.1 11.9
2015-Feb-28 23:00N 47°30' W 005°36'7 7.2 1010.7 12.2
2015-Feb-28 22:00N 47°24' W 005°42'0 0.0 1010.8 12.2
2015-Feb-28 20:00N 47°24' W 005°42'0 0.0 1010.8 12.4
2015-Feb-28 19:00N 47°24' W 005°42'0 0.0 240 / 171011.4 12.9
2015-Feb-28 18:00N 47°24' W 005°42'4 4.1 240 / 121010.5 12.9
2015-Feb-28 17:00N 47°24' W 005°36'1010.1 240 / 231010.9 13.2
2015-Feb-28 16:00N 47°30' W 005°24'14 6.8 240 / 221011.5 13.0
2015-Feb-28 14:00N 47°36' W 005°06'8 8.1 230 / 181012.8 12.9
2015-Feb-28 13:00N 47°36' W 004°54'1010.1 240 / 171014.3 12.9
2015-Feb-28 12:00N 47°42' W 004°42'8 8.1 260 / 141015.4 12.7
2015-Feb-28 11:00N 47°42' W 004°30'1010.1 270 / 121014.5 11.7
2015-Feb-28 10:00N 47°48' W 004°18'   260 / 111014.7 11.2
2015-Feb-23 09:00N 47°48' W 004°18'12 6.0 290 / 191002.6 11.4
2015-Feb-23 07:00N 47°48' W 004°36'1010.0 290 / 221001.6 12.0
2015-Feb-23 06:00N 47°54' W 004°48'8 8.0 280 / 241001.5 12.5
2015-Feb-23 05:00N 47°54' W 005°00'7 7.2 280 / 241001.6 12.7
2015-Feb-23 04:00N 48°00' W 005°06'7 7.2 290 / 181000.8 12.7
2015-Feb-23 03:00N 48°06' W 005°12'8 8.0 280 / 191001.3 12.4
2015-Feb-23 02:00N 48°06' W 005°24'17 8.5 290 / 191001.5 12.7
2015-Feb-23 00:00N 48°18' W 005°42'7 7.2 310 / 231001.5 12.7
2015-Feb-22 23:00N 48°24' W 005°48'1010.0 280 / 241000.8 12.5
2015-Feb-22 22:00N 48°30' W 006°00'1010.0 270 / 231000.6 12.5
2015-Feb-22 21:00N 48°36' W 006°12'4 4.0 270 / 251000.7 12.2
2015-Feb-22 20:00N 48°36' W 006°18'0 0.0 260 / 181001.5 12.4
2015-Feb-22 19:00N 48°36' W 006°18'4 4.0 270 / 181001.4 12.4
2015-Feb-22 18:00N 48°36' W 006°24'6 6.0 270 / 221001.2 12.2
2015-Feb-22 17:00N 48°30' W 006°24'4 4.0 270 / 221001.8 12.2
2015-Feb-22 16:00N 48°30' W 006°30'6 6.0 260 / 201003.2 12.2
2015-Feb-22 15:00N 48°24' W 006°30'0 0.0 250 / 151003.5 12.4
2015-Feb-22 13:00N 48°24' W 006°30'0 0.0 270 / 171004.9 12.4
2015-Feb-22 12:00N 48°24' W 006°30'7 7.2 230 / 191005.8 12.4
2015-Feb-22 11:00N 48°30' W 006°24'0 0.0 200 / 231006.5 12.4
2015-Feb-22 10:00N 48°30' W 006°24'6 6.0 200 / 221007.2 12.4
2015-Feb-22 09:00N 48°36' W 006°24'0 0.0 180 / 211008.1 12.2
2015-Feb-22 07:00N 48°36' W 006°24'6 6.0 230 / 131010.3 12.4
2015-Feb-22 06:00N 48°30' W 006°24'4 4.0 250 / 111011.1 12.4
2015-Feb-22 05:00N 48°30' W 006°30'6 6.0 220 / 71011.5 12.4
2015-Feb-22 04:00N 48°24' W 006°30'7 7.2 260 / 71012.3 12.4
2015-Feb-22 03:00N 48°18' W 006°36'7 3.6 270 / 81013.4 12.4
2015-Feb-22 01:00N 48°24' W 006°30'0 0.0 320 / 111013.8 12.4
2015-Feb-22 00:00N 48°24' W 006°30'7 7.2 330 / 141013.8 12.4
2015-Feb-21 23:00N 48°30' W 006°24'0 0.0 330 / 161013.7 12.4
2015-Feb-21 22:00N 48°30' W 006°24'6 6.0 330 / 181013.8 12.2
2015-Feb-21 21:00N 48°36' W 006°24'0 0.0 320 / 151012.9 12.2
2015-Feb-21 20:00N 48°36' W 006°24'6 6.0 350 / 181012.4 12.2
2015-Feb-21 19:00N 48°30' W 006°24'4 4.0 350 / 171011.7 12.4
2015-Feb-21 18:00N 48°30' W 006°30'6 3.0 340 / 181011.5 12.4
2015-Feb-21 16:00N 48°24' W 006°30'0 0.0 1010.8 12.2
2015-Feb-21 15:00N 48°24' W 006°30'7 7.2 300 / 221011.0 12.4
2015-Feb-21 14:00N 48°18' W 006°36'0 0.0 300 / 211011.3 12.4
2015-Feb-21 13:00N 48°18' W 006°36'0 0.0 310 / 221011.8 12.4
2015-Feb-21 12:00N 48°18' W 006°36'0 0.0 340 / 211012.2 12.5
2015-Feb-21 11:00N 48°18' W 006°36'6 6.0 330 / 221011.5 12.4
2015-Feb-21 10:00N 48°24' W 006°36'4 4.0 320 / 211010.6 12.4
2015-Feb-21 09:00N 48°24' W 006°30'6 6.0 320 / 211010.0 12.4
2015-Feb-21 08:00N 48°30' W 006°30'4 4.0 310 / 181009.4 12.4
2015-Feb-21 07:00N 48°30' W 006°24'0 0.0 300 / 191008.6 12.4
2015-Feb-21 06:00N 48°30' W 006°24'6 6.0 320 / 181007.6 12.4
2015-Feb-21 05:00N 48°36' W 006°24'6 3.0 310 / 181007.0 12.4
2015-Feb-21 03:00N 48°30' W 006°24'4 4.0 330 / 211007.7 12.4
2015-Feb-21 02:00N 48°30' W 006°30'6 6.0 300 / 231007.9 12.4
2015-Feb-21 01:00N 48°24' W 006°30'0 0.0 300 / 211008.1 12.4
2015-Feb-21 00:00N 48°24' W 006°30'7 7.2 310 / 191008.4 12.4
2015-Feb-20 23:00N 48°18' W 006°36'7 7.2 300 / 181008.6 12.4
2015-Feb-20 22:00N 48°24' W 006°30'0 0.0 310 / 201008.8 12.4
2015-Feb-20 21:00N 48°24' W 006°30'7 7.2 270 / 141008.7 12.4
2015-Feb-20 20:00N 48°30' W 006°24'0 0.0 290 / 121008.5 12.4
2015-Feb-20 19:00N 48°30' W 006°24'0 0.0 290 / 111008.5 12.4
2015-Feb-20 17:00N 48°30' W 006°24'4 4.0 300 / 131008.3 12.4
2015-Feb-20 16:00N 48°30' W 006°30'6 6.0 300 / 131008.7 12.4
2015-Feb-20 15:00N 48°24' W 006°30'0 0.0 350 / 121009.1 12.4
2015-Feb-20 14:00N 48°24' W 006°30'7 7.2 340 / 111009.5 12.4
2015-Feb-20 13:00N 48°30' W 006°24'0 0.0 310 / 141010.0 12.2
2015-Feb-20 12:00N 48°30' W 006°24'0 0.0 350 / 141010.6 12.4
2015-Feb-20 11:00N 48°30' W 006°24'7 7.2 320 / 101010.4 12.2
2015-Feb-20 10:00N 48°36' W 006°18'0 0.0 360 / 181010.6 12.4
2015-Feb-20 09:00N 48°36' W 006°18'0 0.0 030 / 171010.1 12.4
2015-Feb-20 07:00N 48°36' W 006°18'4 4.0 020 / 181008.1 12.4
2015-Feb-20 06:00N 48°36' W 006°24'6 6.0 270 / 131006.9 12.4
2015-Feb-20 05:00N 48°30' W 006°24'7 3.6 260 / 181007.5 12.4
2015-Feb-20 03:00N 48°24' W 006°30'0 0.0 240 / 181011.1 12.4
2015-Feb-20 02:00N 48°24' W 006°30'0 0.0 220 / 171012.3 12.4
2015-Feb-20 01:00N 48°24' W 006°30'0 0.0 240 / 161013.0 12.4
2015-Feb-20 00:00N 48°24' W 006°30'0 0.0 240 / 191014.4 12.4
2015-Feb-19 23:00N 48°24' W 006°30'7 7.2 250 / 171015.8 12.4
2015-Feb-19 22:00N 48°30' W 006°24'0 0.0 250 / 161016.6 12.4
2015-Feb-19 21:00N 48°30' W 006°24'6 6.0 230 / 121017.1 12.4
2015-Feb-19 20:00N 48°36' W 006°24'7 7.2 270 / 151017.5 12.4
2015-Feb-19 19:00N 48°30' W 006°30'8 8.0 240 / 141018.2 12.4
2015-Feb-19 18:00N 48°30' W 006°42'1010.0 240 / 151018.2 12.5
2015-Feb-19 17:00N 48°24' W 006°54'7 7.2 250 / 171018.8 12.7
2015-Feb-19 16:00N 48°18' W 007°00'4 4.0 270 / 161019.4 12.9
2015-Feb-19 15:00N 48°18' W 007°06'6 6.0 260 / 161020.2 12.9
2015-Feb-19 14:00N 48°12' W 007°06'4 4.0 240 / 121021.4 13.0
2015-Feb-19 13:00N 48°12' W 007°12'6 6.0 230 / 111022.5 13.2
2015-Feb-19 12:00N 48°06' W 007°12'0 0.0 210 / 131023.5 13.2
2015-Feb-19 11:00N 48°06' W 007°12'0 0.0 230 / 181023.5 12.9
2015-Feb-19 10:00N 48°06' W 007°12'6 6.0 230 / 191024.4 13.2
2015-Feb-19 09:00N 48°12' W 007°12'4 4.0 220 / 201025.1 13.2
2015-Feb-19 08:00N 48°12' W 007°06'6 6.0 220 / 181025.2 13.0
2015-Feb-19 07:00N 48°18' W 007°06'   210 / 191025.0 13.0

Dump ship's entire track history